Terminal Aerodrome Forecast
Issued by NWS Duluth, MN

Home | Current Version | Previous Version | Text Only | Print | Product List | Glossary On
Versions: 1 2 3 4 5 6 7 8 9 10 11 12 13 14 15 16 17 18 19 20 21 22 23 24 25 26
000
FTUS43 KDLH 241300 AAA
TAFDLH
TAF AMD
KDLH 241327Z 2413/2512 32014G25KT 3SM -SN BR BKN010
     FM241500 33018G30KT 5SM -SN BLSN OVC016
     FM242100 33020G32KT 5SM -SN BLSN OVC025
     FM250500 32012KT P6SM BKN050=

USA.gov is the U.S. government's official web portal to all federal, state and local government web resources and services.